sensor_id;sensor_type;location;lat;lon;timestamp;P1;durP1;ratioP1;P2;durP2;ratioP2
2538;SDS011;1280;49.760;9.664;2022-07-17T00:00:46;7.13;;;2.37;;
2538;SDS011;1280;49.760;9.664;2022-07-17T00:03:15;6.70;;;2.67;;
2538;SDS011;1280;49.760;9.664;2022-07-17T00:05:44;6.23;;;2.83;;
2538;SDS011;1280;49.760;9.664;2022-07-17T00:08:12;5.20;;;2.30;;
2538;SDS011;1280;49.760;9.664;2022-07-17T00:10:42;12.60;;;2.97;;
2538;SDS011;1280;49.760;9.664;2022-07-17T00:13:12;5.37;;;3.00;;
2538;SDS011;1280;49.760;9.664;2022-07-17T00:15:40;7.43;;;2.63;;
2538;SDS011;1280;49.760;9.664;2022-07-17T00:18:08;6.40;;;2.77;;
2538;SDS011;1280;49.760;9.664;2022-07-17T00:20:36;10.73;;;2.60;;
2538;SDS011;1280;49.760;9.664;2022-07-17T00:23:04;5.33;;;2.60;;
2538;SDS011;1280;49.760;9.664;2022-07-17T00:25:32;8.43;;;3.33;;
2538;SDS011;1280;49.760;9.664;2022-07-17T00:28:00;4.30;;;2.00;;
2538;SDS011;1280;49.760;9.664;2022-07-17T00:30:37;9.70;;;2.50;;
2538;SDS011;1280;49.760;9.664;2022-07-17T00:33:05;5.90;;;2.70;;
2538;SDS011;1280;49.760;9.664;2022-07-17T00:35:33;6.10;;;2.73;;
2538;SDS011;1280;49.760;9.664;2022-07-17T00:38:01;4.40;;;2.20;;
2538;SDS011;1280;49.760;9.664;2022-07-17T00:40:29;6.47;;;2.73;;
2538;SDS011;1280;49.760;9.664;2022-07-17T00:42:57;6.10;;;2.70;;
2538;SDS011;1280;49.760;9.664;2022-07-17T00:45:25;7.03;;;2.67;;
2538;SDS011;1280;49.760;9.664;2022-07-17T00:47:55;10.53;;;3.07;;
2538;SDS011;1280;49.760;9.664;2022-07-17T00:50:26;5.53;;;2.40;;
2538;SDS011;1280;49.760;9.664;2022-07-17T00:52:57;7.23;;;3.10;;
2538;SDS011;1280;49.760;9.664;2022-07-17T00:55:25;9.53;;;3.00;;
2538;SDS011;1280;49.760;9.664;2022-07-17T00:58:11;8.73;;;3.17;;
2538;SDS011;1280;49.760;9.664;2022-07-17T01:00:44;4.20;;;2.33;;
2538;SDS011;1280;49.760;9.664;2022-07-17T01:03:15;5.33;;;2.20;;
2538;SDS011;1280;49.760;9.664;2022-07-17T01:05:44;4.20;;;2.10;;
2538;SDS011;1280;49.760;9.664;2022-07-17T01:08:12;7.07;;;2.50;;
2538;SDS011;1280;49.760;9.664;2022-07-17T01:10:41;5.40;;;2.30;;
2538;SDS011;1280;49.760;9.664;2022-07-17T01:13:09;5.87;;;2.47;;
2538;SDS011;1280;49.760;9.664;2022-07-17T01:15:38;5.70;;;2.60;;
2538;SDS011;1280;49.760;9.664;2022-07-17T01:18:08;6.53;;;2.47;;
2538;SDS011;1280;49.760;9.664;2022-07-17T01:20:40;6.50;;;2.80;;
2538;SDS011;1280;49.760;9.664;2022-07-17T01:23:11;6.50;;;2.30;;
2538;SDS011;1280;49.760;9.664;2022-07-17T01:25:41;4.30;;;2.13;;
2538;SDS011;1280;49.760;9.664;2022-07-17T01:28:10;4.83;;;2.57;;
2538;SDS011;1280;49.760;9.664;2022-07-17T01:30:48;4.93;;;2.40;;
2538;SDS011;1280;49.760;9.664;2022-07-17T01:33:18;5.00;;;2.23;;
2538;SDS011;1280;49.760;9.664;2022-07-17T01:35:49;5.07;;;2.50;;
2538;SDS011;1280;49.760;9.664;2022-07-17T01:38:18;5.80;;;2.47;;
2538;SDS011;1280;49.760;9.664;2022-07-17T01:40:46;5.90;;;2.30;;
2538;SDS011;1280;49.760;9.664;2022-07-17T01:43:15;6.17;;;2.60;;
2538;SDS011;1280;49.760;9.664;2022-07-17T01:45:42;5.10;;;2.27;;
2538;SDS011;1280;49.760;9.664;2022-07-17T01:48:10;4.43;;;2.47;;
2538;SDS011;1280;49.760;9.664;2022-07-17T01:50:39;6.47;;;2.40;;
2538;SDS011;1280;49.760;9.664;2022-07-17T01:53:07;6.70;;;2.43;;
2538;SDS011;1280;49.760;9.664;2022-07-17T01:55:36;6.70;;;3.00;;
2538;SDS011;1280;49.760;9.664;2022-07-17T01:58:04;5.07;;;2.40;;
2538;SDS011;1280;49.760;9.664;2022-07-17T02:00:33;4.50;;;2.40;;
2538;SDS011;1280;49.760;9.664;2022-07-17T02:03:01;5.40;;;2.53;;
2538;SDS011;1280;49.760;9.664;2022-07-17T02:05:29;5.00;;;2.27;;
2538;SDS011;1280;49.760;9.664;2022-07-17T02:07:57;5.93;;;2.50;;
2538;SDS011;1280;49.760;9.664;2022-07-17T02:10:25;4.73;;;2.10;;
2538;SDS011;1280;49.760;9.664;2022-07-17T02:12:54;5.00;;;2.40;;
2538;SDS011;1280;49.760;9.664;2022-07-17T02:15:24;4.43;;;2.30;;
2538;SDS011;1280;49.760;9.664;2022-07-17T02:17:52;5.47;;;2.70;;
2538;SDS011;1280;49.760;9.664;2022-07-17T02:20:20;4.83;;;2.50;;
2538;SDS011;1280;49.760;9.664;2022-07-17T02:22:48;6.80;;;2.37;;
2538;SDS011;1280;49.760;9.664;2022-07-17T02:25:16;4.37;;;2.37;;
2538;SDS011;1280;49.760;9.664;2022-07-17T02:27:44;4.47;;;2.40;;
2538;SDS011;1280;49.760;9.664;2022-07-17T02:30:15;8.10;;;2.50;;
2538;SDS011;1280;49.760;9.664;2022-07-17T02:32:44;13.30;;;2.33;;
2538;SDS011;1280;49.760;9.664;2022-07-17T02:35:13;5.30;;;2.73;;
2538;SDS011;1280;49.760;9.664;2022-07-17T02:37:41;7.13;;;2.50;;
2538;SDS011;1280;49.760;9.664;2022-07-17T02:40:10;4.60;;;2.60;;
2538;SDS011;1280;49.760;9.664;2022-07-17T02:42:39;9.87;;;2.57;;
2538;SDS011;1280;49.760;9.664;2022-07-17T02:45:08;6.40;;;2.37;;
2538;SDS011;1280;49.760;9.664;2022-07-17T02:47:37;5.03;;;2.23;;
2538;SDS011;1280;49.760;9.664;2022-07-17T02:50:06;5.60;;;2.70;;
2538;SDS011;1280;49.760;9.664;2022-07-17T02:52:35;5.63;;;2.97;;
2538;SDS011;1280;49.760;9.664;2022-07-17T02:55:04;5.80;;;2.47;;
2538;SDS011;1280;49.760;9.664;2022-07-17T02:57:33;6.13;;;2.00;;
2538;SDS011;1280;49.760;9.664;2022-07-17T03:00:01;5.00;;;2.33;;
2538;SDS011;1280;49.760;9.664;2022-07-17T03:02:30;4.73;;;2.30;;
2538;SDS011;1280;49.760;9.664;2022-07-17T03:04:59;8.13;;;2.67;;
2538;SDS011;1280;49.760;9.664;2022-07-17T03:07:27;7.17;;;2.60;;
2538;SDS011;1280;49.760;9.664;2022-07-17T03:09:55;7.73;;;2.70;;
2538;SDS011;1280;49.760;9.664;2022-07-17T03:12:23;4.93;;;2.40;;
2538;SDS011;1280;49.760;9.664;2022-07-17T03:14:51;5.47;;;2.10;;
2538;SDS011;1280;49.760;9.664;2022-07-17T03:17:19;6.90;;;2.13;;
2538;SDS011;1280;49.760;9.664;2022-07-17T03:19:47;6.23;;;2.43;;
2538;SDS011;1280;49.760;9.664;2022-07-17T03:22:16;5.33;;;2.23;;
2538;SDS011;1280;49.760;9.664;2022-07-17T03:24:44;7.70;;;2.30;;
2538;SDS011;1280;49.760;9.664;2022-07-17T03:27:12;5.40;;;2.40;;
2538;SDS011;1280;49.760;9.664;2022-07-17T03:29:41;4.37;;;2.40;;
2538;SDS011;1280;49.760;9.664;2022-07-17T03:32:09;4.57;;;2.33;;
2538;SDS011;1280;49.760;9.664;2022-07-17T03:34:37;8.03;;;2.60;;
2538;SDS011;1280;49.760;9.664;2022-07-17T03:37:05;5.73;;;2.27;;
2538;SDS011;1280;49.760;9.664;2022-07-17T03:39:35;5.60;;;2.63;;
2538;SDS011;1280;49.760;9.664;2022-07-17T03:42:03;5.83;;;2.40;;
2538;SDS011;1280;49.760;9.664;2022-07-17T03:44:31;5.33;;;2.13;;
2538;SDS011;1280;49.760;9.664;2022-07-17T03:46:59;8.53;;;2.00;;
2538;SDS011;1280;49.760;9.664;2022-07-17T03:49:27;4.67;;;2.47;;
2538;SDS011;1280;49.760;9.664;2022-07-17T03:51:55;5.80;;;2.50;;
2538;SDS011;1280;49.760;9.664;2022-07-17T03:54:23;4.87;;;2.40;;
2538;SDS011;1280;49.760;9.664;2022-07-17T03:56:52;4.87;;;2.43;;
2538;SDS011;1280;49.760;9.664;2022-07-17T03:59:20;7.93;;;2.63;;
2538;SDS011;1280;49.760;9.664;2022-07-17T04:01:48;5.40;;;2.40;;
2538;SDS011;1280;49.760;9.664;2022-07-17T04:04:16;4.83;;;2.20;;
2538;SDS011;1280;49.760;9.664;2022-07-17T04:06:44;4.93;;;2.07;;
2538;SDS011;1280;49.760;9.664;2022-07-17T04:09:12;5.90;;;2.53;;
2538;SDS011;1280;49.760;9.664;2022-07-17T04:11:40;4.90;;;2.70;;
2538;SDS011;1280;49.760;9.664;2022-07-17T04:14:09;6.83;;;2.40;;
2538;SDS011;1280;49.760;9.664;2022-07-17T04:16:37;5.47;;;2.60;;
2538;SDS011;1280;49.760;9.664;2022-07-17T04:19:05;4.83;;;2.27;;
2538;SDS011;1280;49.760;9.664;2022-07-17T04:21:34;6.70;;;2.53;;
2538;SDS011;1280;49.760;9.664;2022-07-17T04:24:02;6.60;;;2.20;;
2538;SDS011;1280;49.760;9.664;2022-07-17T04:26:30;5.13;;;2.27;;
2538;SDS011;1280;49.760;9.664;2022-07-17T04:29:01;5.70;;;2.70;;
2538;SDS011;1280;49.760;9.664;2022-07-17T04:31:31;4.37;;;2.40;;
2538;SDS011;1280;49.760;9.664;2022-07-17T04:33:59;9.00;;;2.70;;
2538;SDS011;1280;49.760;9.664;2022-07-17T04:36:27;4.53;;;2.20;;
2538;SDS011;1280;49.760;9.664;2022-07-17T04:38:55;10.07;;;2.57;;
2538;SDS011;1280;49.760;9.664;2022-07-17T04:41:23;6.00;;;2.73;;
2538;SDS011;1280;49.760;9.664;2022-07-17T04:43:51;5.43;;;2.10;;
2538;SDS011;1280;49.760;9.664;2022-07-17T04:46:20;5.63;;;2.13;;
2538;SDS011;1280;49.760;9.664;2022-07-17T04:48:49;6.43;;;2.40;;
2538;SDS011;1280;49.760;9.664;2022-07-17T04:51:17;6.33;;;2.80;;
2538;SDS011;1280;49.760;9.664;2022-07-17T04:53:45;5.00;;;2.37;;
2538;SDS011;1280;49.760;9.664;2022-07-17T04:56:13;4.53;;;2.20;;
2538;SDS011;1280;49.760;9.664;2022-07-17T04:58:41;4.80;;;2.37;;
2538;SDS011;1280;49.760;9.664;2022-07-17T05:01:09;5.23;;;2.20;;
2538;SDS011;1280;49.760;9.664;2022-07-17T05:03:37;10.10;;;2.37;;
2538;SDS011;1280;49.760;9.664;2022-07-17T05:06:06;4.60;;;2.30;;
2538;SDS011;1280;49.760;9.664;2022-07-17T05:08:35;5.10;;;2.47;;
2538;SDS011;1280;49.760;9.664;2022-07-17T05:11:03;6.23;;;3.07;;
2538;SDS011;1280;49.760;9.664;2022-07-17T05:13:31;4.20;;;1.90;;
2538;SDS011;1280;49.760;9.664;2022-07-17T05:15:59;7.10;;;2.10;;
2538;SDS011;1280;49.760;9.664;2022-07-17T05:18:27;8.07;;;2.10;;
2538;SDS011;1280;49.760;9.664;2022-07-17T05:20:55;4.70;;;2.13;;
2538;SDS011;1280;49.760;9.664;2022-07-17T05:23:25;7.73;;;2.43;;
2538;SDS011;1280;49.760;9.664;2022-07-17T05:25:53;5.77;;;2.23;;
2538;SDS011;1280;49.760;9.664;2022-07-17T05:28:20;5.90;;;2.17;;
2538;SDS011;1280;49.760;9.664;2022-07-17T05:30:49;9.87;;;2.50;;
2538;SDS011;1280;49.760;9.664;2022-07-17T05:33:17;5.47;;;2.17;;
2538;SDS011;1280;49.760;9.664;2022-07-17T05:35:45;5.53;;;2.20;;
2538;SDS011;1280;49.760;9.664;2022-07-17T05:38:18;7.70;;;2.13;;
2538;SDS011;1280;49.760;9.664;2022-07-17T05:40:48;8.30;;;1.83;;
2538;SDS011;1280;49.760;9.664;2022-07-17T05:43:16;6.87;;;1.83;;
2538;SDS011;1280;49.760;9.664;2022-07-17T05:45:44;6.33;;;2.33;;
2538;SDS011;1280;49.760;9.664;2022-07-17T05:48:12;6.93;;;1.50;;
2538;SDS011;1280;49.760;9.664;2022-07-17T05:50:40;9.00;;;1.87;;
2538;SDS011;1280;49.760;9.664;2022-07-17T05:53:07;4.43;;;1.50;;
2538;SDS011;1280;49.760;9.664;2022-07-17T05:55:35;5.77;;;1.60;;
2538;SDS011;1280;49.760;9.664;2022-07-17T05:58:05;4.50;;;1.37;;
2538;SDS011;1280;49.760;9.664;2022-07-17T06:00:33;11.30;;;1.57;;
2538;SDS011;1280;49.760;9.664;2022-07-17T06:03:01;8.70;;;1.80;;
2538;SDS011;1280;49.760;9.664;2022-07-17T06:05:29;6.00;;;1.70;;
2538;SDS011;1280;49.760;9.664;2022-07-17T06:07:58;4.80;;;1.43;;
2538;SDS011;1280;49.760;9.664;2022-07-17T06:10:26;6.40;;;1.60;;
2538;SDS011;1280;49.760;9.664;2022-07-17T06:12:55;6.03;;;1.40;;
2538;SDS011;1280;49.760;9.664;2022-07-17T06:15:25;5.70;;;1.50;;
2538;SDS011;1280;49.760;9.664;2022-07-17T06:17:53;6.33;;;1.90;;
2538;SDS011;1280;49.760;9.664;2022-07-17T06:20:21;18.03;;;1.97;;
2538;SDS011;1280;49.760;9.664;2022-07-17T06:22:49;4.43;;;1.33;;
2538;SDS011;1280;49.760;9.664;2022-07-17T06:25:17;12.00;;;3.10;;
2538;SDS011;1280;49.760;9.664;2022-07-17T06:27:44;4.40;;;1.43;;
2538;SDS011;1280;49.760;9.664;2022-07-17T06:30:13;6.80;;;1.30;;
2538;SDS011;1280;49.760;9.664;2022-07-17T06:32:43;5.60;;;1.50;;
2538;SDS011;1280;49.760;9.664;2022-07-17T06:35:12;5.77;;;1.83;;
2538;SDS011;1280;49.760;9.664;2022-07-17T06:37:40;9.93;;;1.97;;
2538;SDS011;1280;49.760;9.664;2022-07-17T06:40:08;5.13;;;1.40;;
2538;SDS011;1280;49.760;9.664;2022-07-17T06:42:36;3.60;;;1.13;;
2538;SDS011;1280;49.760;9.664;2022-07-17T06:45:05;3.90;;;1.10;;
2538;SDS011;1280;49.760;9.664;2022-07-17T06:47:36;4.90;;;1.40;;
2538;SDS011;1280;49.760;9.664;2022-07-17T06:50:06;6.40;;;1.60;;
2538;SDS011;1280;49.760;9.664;2022-07-17T06:52:36;5.37;;;1.90;;
2538;SDS011;1280;49.760;9.664;2022-07-17T06:55:11;5.40;;;1.40;;
2538;SDS011;1280;49.760;9.664;2022-07-17T06:57:39;5.40;;;2.00;;
2538;SDS011;1280;49.760;9.664;2022-07-17T07:00:07;5.40;;;1.60;;
2538;SDS011;1280;49.760;9.664;2022-07-17T07:02:36;5.00;;;1.63;;
2538;SDS011;1280;49.760;9.664;2022-07-17T07:05:06;5.43;;;1.70;;
2538;SDS011;1280;49.760;9.664;2022-07-17T07:07:34;3.80;;;1.30;;
2538;SDS011;1280;49.760;9.664;2022-07-17T07:10:03;8.50;;;1.90;;
2538;SDS011;1280;49.760;9.664;2022-07-17T07:12:31;7.40;;;1.63;;
2538;SDS011;1280;49.760;9.664;2022-07-17T07:14:59;6.27;;;1.87;;
2538;SDS011;1280;49.760;9.664;2022-07-17T07:17:27;5.30;;;1.47;;
2538;SDS011;1280;49.760;9.664;2022-07-17T07:19:55;5.40;;;1.57;;
2538;SDS011;1280;49.760;9.664;2022-07-17T07:22:24;7.23;;;1.53;;
2538;SDS011;1280;49.760;9.664;2022-07-17T07:24:52;6.27;;;1.80;;
2538;SDS011;1280;49.760;9.664;2022-07-17T07:27:20;6.90;;;1.47;;
2538;SDS011;1280;49.760;9.664;2022-07-17T07:29:48;5.40;;;1.40;;
2538;SDS011;1280;49.760;9.664;2022-07-17T07:32:16;7.67;;;1.70;;
2538;SDS011;1280;49.760;9.664;2022-07-17T07:34:44;4.70;;;1.10;;
2538;SDS011;1280;49.760;9.664;2022-07-17T07:37:12;5.27;;;2.00;;
2538;SDS011;1280;49.760;9.664;2022-07-17T07:39:42;5.23;;;1.40;;
2538;SDS011;1280;49.760;9.664;2022-07-17T07:42:10;7.10;;;1.73;;
2538;SDS011;1280;49.760;9.664;2022-07-17T07:44:38;3.80;;;1.30;;
2538;SDS011;1280;49.760;9.664;2022-07-17T07:47:06;5.60;;;1.40;;
2538;SDS011;1280;49.760;9.664;2022-07-17T07:49:34;4.80;;;1.33;;
2538;SDS011;1280;49.760;9.664;2022-07-17T07:52:05;5.03;;;1.50;;
2538;SDS011;1280;49.760;9.664;2022-07-17T07:54:34;10.07;;;1.70;;
2538;SDS011;1280;49.760;9.664;2022-07-17T07:57:03;5.97;;;1.70;;
2538;SDS011;1280;49.760;9.664;2022-07-17T07:59:31;4.00;;;1.03;;
2538;SDS011;1280;49.760;9.664;2022-07-17T08:01:59;5.50;;;1.40;;
2538;SDS011;1280;49.760;9.664;2022-07-17T08:04:28;5.27;;;1.43;;
2538;SDS011;1280;49.760;9.664;2022-07-17T08:06:56;4.00;;;1.37;;
2538;SDS011;1280;49.760;9.664;2022-07-17T08:09:24;6.77;;;1.47;;
2538;SDS011;1280;49.760;9.664;2022-07-17T08:11:52;5.00;;;1.20;;
2538;SDS011;1280;49.760;9.664;2022-07-17T08:14:21;5.17;;;1.67;;
2538;SDS011;1280;49.760;9.664;2022-07-17T08:16:49;5.20;;;1.43;;
2538;SDS011;1280;49.760;9.664;2022-07-17T08:19:17;4.63;;;1.30;;
2538;SDS011;1280;49.760;9.664;2022-07-17T08:21:45;5.90;;;1.43;;
2538;SDS011;1280;49.760;9.664;2022-07-17T08:24:13;5.50;;;1.40;;
2538;SDS011;1280;49.760;9.664;2022-07-17T08:26:42;6.83;;;1.70;;
2538;SDS011;1280;49.760;9.664;2022-07-17T08:29:10;6.13;;;1.30;;
2538;SDS011;1280;49.760;9.664;2022-07-17T08:31:39;4.70;;;1.30;;
2538;SDS011;1280;49.760;9.664;2022-07-17T08:34:07;5.70;;;1.40;;
2538;SDS011;1280;49.760;9.664;2022-07-17T08:36:35;6.27;;;1.70;;
2538;SDS011;1280;49.760;9.664;2022-07-17T08:39:03;4.60;;;1.37;;
2538;SDS011;1280;49.760;9.664;2022-07-17T08:41:31;7.10;;;1.40;;
2538;SDS011;1280;49.760;9.664;2022-07-17T08:44:04;5.10;;;1.50;;
2538;SDS011;1280;49.760;9.664;2022-07-17T08:46:33;5.53;;;1.27;;
2538;SDS011;1280;49.760;9.664;2022-07-17T08:49:06;5.73;;;1.30;;
2538;SDS011;1280;49.760;9.664;2022-07-17T08:51:35;5.97;;;1.33;;
2538;SDS011;1280;49.760;9.664;2022-07-17T08:54:11;5.90;;;1.37;;
2538;SDS011;1280;49.760;9.664;2022-07-17T08:56:39;5.53;;;1.40;;
2538;SDS011;1280;49.760;9.664;2022-07-17T08:59:07;5.17;;;1.60;;
2538;SDS011;1280;49.760;9.664;2022-07-17T09:01:35;5.90;;;1.47;;
2538;SDS011;1280;49.760;9.664;2022-07-17T09:04:04;4.10;;;1.40;;
2538;SDS011;1280;49.760;9.664;2022-07-17T09:06:36;6.97;;;1.70;;
2538;SDS011;1280;49.760;9.664;2022-07-17T09:09:05;5.47;;;1.40;;
2538;SDS011;1280;49.760;9.664;2022-07-17T09:11:44;6.07;;;1.90;;
2538;SDS011;1280;49.760;9.664;2022-07-17T09:14:13;5.80;;;1.20;;
2538;SDS011;1280;49.760;9.664;2022-07-17T09:16:49;4.87;;;1.43;;
2538;SDS011;1280;49.760;9.664;2022-07-17T09:19:29;5.10;;;1.30;;
2538;SDS011;1280;49.760;9.664;2022-07-17T09:22:05;3.90;;;1.10;;
2538;SDS011;1280;49.760;9.664;2022-07-17T09:24:45;4.70;;;1.37;;
2538;SDS011;1280;49.760;9.664;2022-07-17T09:27:15;4.47;;;1.20;;
2538;SDS011;1280;49.760;9.664;2022-07-17T09:29:58;4.77;;;1.37;;
2538;SDS011;1280;49.760;9.664;2022-07-17T09:32:31;5.17;;;1.47;;
2538;SDS011;1280;49.760;9.664;2022-07-17T09:35:04;7.40;;;1.50;;
2538;SDS011;1280;49.760;9.664;2022-07-17T09:37:34;4.67;;;1.53;;
2538;SDS011;1280;49.760;9.664;2022-07-17T09:40:08;4.27;;;1.43;;
2538;SDS011;1280;49.760;9.664;2022-07-17T09:42:36;4.77;;;1.50;;
2538;SDS011;1280;49.760;9.664;2022-07-17T09:45:05;4.90;;;1.50;;
2538;SDS011;1280;49.760;9.664;2022-07-17T09:47:37;9.20;;;2.60;;
2538;SDS011;1280;49.760;9.664;2022-07-17T09:50:07;4.70;;;1.50;;
2538;SDS011;1280;49.760;9.664;2022-07-17T09:52:36;4.00;;;0.90;;
2538;SDS011;1280;49.760;9.664;2022-07-17T09:55:05;6.87;;;1.73;;
2538;SDS011;1280;49.760;9.664;2022-07-17T09:57:54;6.30;;;1.67;;
2538;SDS011;1280;49.760;9.664;2022-07-17T10:00:22;3.90;;;1.23;;
2538;SDS011;1280;49.760;9.664;2022-07-17T10:02:50;4.87;;;1.63;;
2538;SDS011;1280;49.760;9.664;2022-07-17T10:05:21;5.73;;;1.27;;
2538;SDS011;1280;49.760;9.664;2022-07-17T10:07:50;5.80;;;1.43;;
2538;SDS011;1280;49.760;9.664;2022-07-17T10:10:19;4.90;;;1.30;;
2538;SDS011;1280;49.760;9.664;2022-07-17T10:12:47;5.60;;;1.53;;
2538;SDS011;1280;49.760;9.664;2022-07-17T10:15:17;4.83;;;1.37;;
2538;SDS011;1280;49.760;9.664;2022-07-17T10:17:50;4.77;;;1.17;;
2538;SDS011;1280;49.760;9.664;2022-07-17T10:20:25;4.47;;;1.30;;
2538;SDS011;1280;49.760;9.664;2022-07-17T10:22:53;5.20;;;1.20;;
2538;SDS011;1280;49.760;9.664;2022-07-17T10:25:22;4.30;;;1.37;;
2538;SDS011;1280;49.760;9.664;2022-07-17T10:27:51;4.20;;;1.50;;
2538;SDS011;1280;49.760;9.664;2022-07-17T10:30:24;4.57;;;1.37;;
2538;SDS011;1280;49.760;9.664;2022-07-17T10:32:54;4.10;;;1.30;;
2538;SDS011;1280;49.760;9.664;2022-07-17T10:35:26;4.93;;;1.50;;
2538;SDS011;1280;49.760;9.664;2022-07-17T10:37:56;4.17;;;1.40;;
2538;SDS011;1280;49.760;9.664;2022-07-17T10:40:26;5.03;;;1.30;;
2538;SDS011;1280;49.760;9.664;2022-07-17T10:42:55;5.60;;;1.40;;
2538;SDS011;1280;49.760;9.664;2022-07-17T10:45:26;4.30;;;1.00;;
2538;SDS011;1280;49.760;9.664;2022-07-17T10:47:59;6.00;;;1.60;;
2538;SDS011;1280;49.760;9.664;2022-07-17T10:50:31;5.10;;;1.30;;
2538;SDS011;1280;49.760;9.664;2022-07-17T10:53:06;5.20;;;1.30;;
2538;SDS011;1280;49.760;9.664;2022-07-17T10:55:36;4.97;;;1.60;;
2538;SDS011;1280;49.760;9.664;2022-07-17T11:01:04;4.13;;;1.20;;
2538;SDS011;1280;49.760;9.664;2022-07-17T11:03:38;5.87;;;1.20;;
2538;SDS011;1280;49.760;9.664;2022-07-17T11:06:10;4.30;;;1.50;;
2538;SDS011;1280;49.760;9.664;2022-07-17T11:08:44;4.43;;;1.33;;
2538;SDS011;1280;49.760;9.664;2022-07-17T11:11:13;4.90;;;1.70;;
2538;SDS011;1280;49.760;9.664;2022-07-17T11:13:53;4.43;;;1.40;;
2538;SDS011;1280;49.760;9.664;2022-07-17T11:16:23;4.53;;;1.50;;
2538;SDS011;1280;49.760;9.664;2022-07-17T11:18:53;4.67;;;1.30;;
2538;SDS011;1280;49.760;9.664;2022-07-17T11:21:23;7.30;;;1.67;;
2538;SDS011;1280;49.760;9.664;2022-07-17T11:23:52;4.73;;;1.30;;
2538;SDS011;1280;49.760;9.664;2022-07-17T11:26:21;4.00;;;1.17;;
2538;SDS011;1280;49.760;9.664;2022-07-17T11:28:49;5.50;;;1.10;;
2538;SDS011;1280;49.760;9.664;2022-07-17T11:31:27;4.20;;;1.40;;
2538;SDS011;1280;49.760;9.664;2022-07-17T11:33:56;4.50;;;1.20;;
2538;SDS011;1280;49.760;9.664;2022-07-17T11:36:28;6.10;;;1.33;;
2538;SDS011;1280;49.760;9.664;2022-07-17T11:38:58;3.87;;;1.10;;
2538;SDS011;1280;49.760;9.664;2022-07-17T11:41:32;4.67;;;1.70;;
2538;SDS011;1280;49.760;9.664;2022-07-17T11:44:01;4.00;;;1.20;;
2538;SDS011;1280;49.760;9.664;2022-07-17T11:46:31;5.40;;;1.40;;
2538;SDS011;1280;49.760;9.664;2022-07-17T11:49:00;4.23;;;1.27;;
2538;SDS011;1280;49.760;9.664;2022-07-17T11:51:36;4.47;;;1.20;;
2538;SDS011;1280;49.760;9.664;2022-07-17T11:54:07;4.23;;;1.40;;
2538;SDS011;1280;49.760;9.664;2022-07-17T11:56:37;6.50;;;1.50;;
2538;SDS011;1280;49.760;9.664;2022-07-17T11:59:06;4.13;;;1.37;;
2538;SDS011;1280;49.760;9.664;2022-07-17T12:01:37;4.60;;;1.60;;
2538;SDS011;1280;49.760;9.664;2022-07-17T12:04:07;3.63;;;1.17;;
2538;SDS011;1280;49.760;9.664;2022-07-17T12:06:44;4.97;;;1.60;;
2538;SDS011;1280;49.760;9.664;2022-07-17T12:09:13;4.97;;;1.33;;
2538;SDS011;1280;49.760;9.664;2022-07-17T12:11:47;7.83;;;1.50;;
2538;SDS011;1280;49.760;9.664;2022-07-17T12:14:16;7.27;;;1.33;;
2538;SDS011;1280;49.760;9.664;2022-07-17T12:16:45;4.70;;;1.33;;
2538;SDS011;1280;49.760;9.664;2022-07-17T12:19:14;4.57;;;1.10;;
2538;SDS011;1280;49.760;9.664;2022-07-17T12:21:48;4.90;;;1.43;;
2538;SDS011;1280;49.760;9.664;2022-07-17T12:24:29;4.80;;;1.27;;
2538;SDS011;1280;49.760;9.664;2022-07-17T12:27:00;8.00;;;1.43;;
2538;SDS011;1280;49.760;9.664;2022-07-17T12:29:29;4.23;;;1.57;;
2538;SDS011;1280;49.760;9.664;2022-07-17T12:32:01;4.70;;;1.37;;
2538;SDS011;1280;49.760;9.664;2022-07-17T12:34:31;5.57;;;1.33;;
2538;SDS011;1280;49.760;9.664;2022-07-17T12:37:01;7.60;;;1.40;;
2538;SDS011;1280;49.760;9.664;2022-07-17T12:39:29;6.40;;;2.10;;
2538;SDS011;1280;49.760;9.664;2022-07-17T12:41:57;6.53;;;1.23;;
2538;SDS011;1280;49.760;9.664;2022-07-17T12:44:26;5.50;;;1.20;;
2538;SDS011;1280;49.760;9.664;2022-07-17T12:46:54;5.87;;;1.20;;
2538;SDS011;1280;49.760;9.664;2022-07-17T12:49:22;4.33;;;1.40;;
2538;SDS011;1280;49.760;9.664;2022-07-17T12:51:51;5.43;;;1.50;;
2538;SDS011;1280;49.760;9.664;2022-07-17T12:54:21;5.30;;;1.20;;
2538;SDS011;1280;49.760;9.664;2022-07-17T13:03:27;4.20;;;1.20;;
2538;SDS011;1280;49.760;9.664;2022-07-17T13:05:55;7.63;;;1.00;;
2538;SDS011;1280;49.760;9.664;2022-07-17T13:08:23;5.77;;;1.43;;
2538;SDS011;1280;49.760;9.664;2022-07-17T13:10:53;5.27;;;1.23;;
2538;SDS011;1280;49.760;9.664;2022-07-17T13:13:21;5.00;;;1.30;;
2538;SDS011;1280;49.760;9.664;2022-07-17T13:15:49;5.70;;;1.20;;
2538;SDS011;1280;49.760;9.664;2022-07-17T13:18:19;4.47;;;1.40;;
2538;SDS011;1280;49.760;9.664;2022-07-17T13:20:47;3.97;;;1.10;;
2538;SDS011;1280;49.760;9.664;2022-07-17T13:23:15;7.50;;;1.60;;
2538;SDS011;1280;49.760;9.664;2022-07-17T13:25:43;4.40;;;1.47;;
2538;SDS011;1280;49.760;9.664;2022-07-17T13:28:12;4.60;;;1.40;;
2538;SDS011;1280;49.760;9.664;2022-07-17T13:30:41;5.80;;;1.20;;
2538;SDS011;1280;49.760;9.664;2022-07-17T13:33:09;6.40;;;1.40;;
2538;SDS011;1280;49.760;9.664;2022-07-17T13:35:37;11.93;;;1.53;;
2538;SDS011;1280;49.760;9.664;2022-07-17T13:38:05;5.63;;;1.43;;
2538;SDS011;1280;49.760;9.664;2022-07-17T13:40:34;4.60;;;1.47;;
2538;SDS011;1280;49.760;9.664;2022-07-17T13:43:03;13.40;;;2.53;;
2538;SDS011;1280;49.760;9.664;2022-07-17T13:45:33;6.80;;;1.57;;
2538;SDS011;1280;49.760;9.664;2022-07-17T13:48:01;5.90;;;1.50;;
2538;SDS011;1280;49.760;9.664;2022-07-17T13:50:31;7.80;;;1.77;;
2538;SDS011;1280;49.760;9.664;2022-07-17T13:52:59;5.07;;;1.30;;
2538;SDS011;1280;49.760;9.664;2022-07-17T14:03:08;5.83;;;1.30;;
2538;SDS011;1280;49.760;9.664;2022-07-17T14:05:36;4.07;;;1.40;;
2538;SDS011;1280;49.760;9.664;2022-07-17T14:08:04;6.03;;;1.33;;
2538;SDS011;1280;49.760;9.664;2022-07-17T14:10:32;3.70;;;0.90;;
2538;SDS011;1280;49.760;9.664;2022-07-17T14:13:01;6.23;;;1.33;;
2538;SDS011;1280;49.760;9.664;2022-07-17T14:15:29;4.63;;;1.23;;
2538;SDS011;1280;49.760;9.664;2022-07-17T14:17:57;7.20;;;1.57;;
2538;SDS011;1280;49.760;9.664;2022-07-17T14:20:27;7.00;;;1.30;;
2538;SDS011;1280;49.760;9.664;2022-07-17T14:22:55;4.20;;;1.30;;
2538;SDS011;1280;49.760;9.664;2022-07-17T14:25:23;4.30;;;1.40;;
2538;SDS011;1280;49.760;9.664;2022-07-17T14:27:52;5.63;;;1.37;;
2538;SDS011;1280;49.760;9.664;2022-07-17T14:30:20;5.30;;;1.23;;
2538;SDS011;1280;49.760;9.664;2022-07-17T14:32:48;4.80;;;1.50;;
2538;SDS011;1280;49.760;9.664;2022-07-17T14:35:16;4.17;;;1.40;;
2538;SDS011;1280;49.760;9.664;2022-07-17T14:37:46;5.03;;;1.60;;
2538;SDS011;1280;49.760;9.664;2022-07-17T14:40:14;5.73;;;1.30;;
2538;SDS011;1280;49.760;9.664;2022-07-17T14:42:43;6.53;;;1.43;;
2538;SDS011;1280;49.760;9.664;2022-07-17T14:51:09;5.43;;;1.17;;
2538;SDS011;1280;49.760;9.664;2022-07-17T14:53:39;5.50;;;1.27;;
2538;SDS011;1280;49.760;9.664;2022-07-17T14:56:07;7.40;;;1.53;;
2538;SDS011;1280;49.760;9.664;2022-07-17T14:58:35;4.57;;;1.60;;
2538;SDS011;1280;49.760;9.664;2022-07-17T15:01:03;3.63;;;0.87;;
2538;SDS011;1280;49.760;9.664;2022-07-17T15:03:31;4.00;;;1.27;;
2538;SDS011;1280;49.760;9.664;2022-07-17T15:05:59;4.50;;;1.53;;
2538;SDS011;1280;49.760;9.664;2022-07-17T15:08:27;4.33;;;1.60;;
2538;SDS011;1280;49.760;9.664;2022-07-17T15:10:56;8.30;;;1.47;;
2538;SDS011;1280;49.760;9.664;2022-07-17T15:13:25;4.00;;;1.20;;
2538;SDS011;1280;49.760;9.664;2022-07-17T15:15:53;6.73;;;1.00;;
2538;SDS011;1280;49.760;9.664;2022-07-17T15:18:21;4.93;;;1.17;;
2538;SDS011;1280;49.760;9.664;2022-07-17T15:20:49;4.50;;;1.30;;
2538;SDS011;1280;49.760;9.664;2022-07-17T15:23:17;4.60;;;1.17;;
2538;SDS011;1280;49.760;9.664;2022-07-17T15:25:45;4.47;;;1.40;;
2538;SDS011;1280;49.760;9.664;2022-07-17T15:28:15;4.87;;;1.43;;
2538;SDS011;1280;49.760;9.664;2022-07-17T15:30:43;4.37;;;1.10;;
2538;SDS011;1280;49.760;9.664;2022-07-17T15:33:11;4.70;;;1.23;;
2538;SDS011;1280;49.760;9.664;2022-07-17T15:35:39;4.03;;;1.17;;
2538;SDS011;1280;49.760;9.664;2022-07-17T15:38:07;3.43;;;1.00;;
2538;SDS011;1280;49.760;9.664;2022-07-17T15:40:35;4.00;;;1.10;;
2538;SDS011;1280;49.760;9.664;2022-07-17T15:43:03;4.30;;;1.30;;
2538;SDS011;1280;49.760;9.664;2022-07-17T15:45:32;3.60;;;0.90;;
2538;SDS011;1280;49.760;9.664;2022-07-17T15:48:01;6.17;;;1.13;;
2538;SDS011;1280;49.760;9.664;2022-07-17T15:50:29;4.80;;;1.47;;